Terminal Aerodrome Forecast
Issued by NWS

Home | Current Version | Previous Version | Text Only | Print | Product List | Glossary On
Versions: 1 2 3 4 5 6 7 8 9 10 11 12 13 14 15
000
FTUS43 KABR 301125
TAFATY
TAF
KATY 301125Z 3012/0112 02007KT P6SM OVC200
     FM301500 04012KT P6SM OVC120
     FM301700 04016G26KT P6SM OVC130
     FM010200 02017G27KT P6SM -RA OVC060
     FM010500 02015G25KT P6SM -RASN OVC025
     FM011100 36015G25KT 4SM -SN OVC015=

USA.gov is the U.S. government's official web portal to all federal, state and local government web resources and services.